createdAt,value
2023-09-05T00:06:11.872Z,7.40
2023-09-05T00:21:16.378Z,7.30
2023-09-05T00:36:18.348Z,7.43
2023-09-05T00:51:21.605Z,7.30
2023-09-05T01:23:01.873Z,7.45
2023-09-05T01:38:04.009Z,7.50
2023-09-05T01:53:06.001Z,7.90
2023-09-05T02:08:08.005Z,7.80
2023-09-05T02:23:10.013Z,8.07
2023-09-05T02:38:14.405Z,7.63
2023-09-05T02:53:16.402Z,7.50
2023-09-05T03:08:18.337Z,7.75
2023-09-05T03:23:21.028Z,8.00
2023-09-05T03:38:23.046Z,7.82
2023-09-05T03:53:27.564Z,8.00
2023-09-05T04:08:31.077Z,8.18
2023-09-05T04:23:34.794Z,9.85
2023-09-05T04:38:37.613Z,8.02
2023-09-05T04:53:39.745Z,8.30
2023-09-05T05:08:41.717Z,8.50
2023-09-05T05:23:43.662Z,8.40
2023-09-05T05:38:45.598Z,8.90
2023-09-05T05:53:50.155Z,8.73
2023-09-05T06:08:52.306Z,8.60
2023-09-05T06:23:54.306Z,8.27
2023-09-05T06:38:56.262Z,8.90
2023-09-05T06:53:59.915Z,7.75
2023-09-05T07:09:01.882Z,7.13
2023-09-05T07:24:04.107Z,7.28
2023-09-05T07:39:06.223Z,7.70
2023-09-05T07:54:08.985Z,7.40
2023-09-05T08:09:10.949Z,7.13
2023-09-05T08:24:13.199Z,7.30
2023-09-05T08:39:15.178Z,7.55
2023-09-05T08:54:17.422Z,6.90
2023-09-05T09:09:40.872Z,7.80
2023-09-05T09:24:42.820Z,8.27
2023-09-05T09:39:44.823Z,7.38
2023-09-05T09:54:47.483Z,8.10
2023-09-05T10:09:49.472Z,8.40
2023-09-05T10:24:52.357Z,7.60
2023-09-05T10:39:58.936Z,8.10
2023-09-05T10:55:31.044Z,8.65
2023-09-05T11:10:35.958Z,8.25
2023-09-05T11:25:57.917Z,9.07
2023-09-05T11:41:00.657Z,8.73
2023-09-05T11:56:02.597Z,8.63
2023-09-05T12:11:06.192Z,8.60
2023-09-05T12:26:08.550Z,8.75
2023-09-05T12:41:10.497Z,8.85
2023-09-05T12:56:12.485Z,8.90
2023-09-05T13:11:16.873Z,9.40
2023-09-05T13:26:19.055Z,9.10
2023-09-05T13:41:21.016Z,8.55
2023-09-05T13:56:24.186Z,9.07
2023-09-05T14:11:26.224Z,9.23
2023-09-05T14:26:30.771Z,8.90
2023-09-05T14:41:33.017Z,8.63
2023-09-05T14:56:35.091Z,8.67
2023-09-05T15:11:37.643Z,8.90
2023-09-05T15:26:39.732Z,9.33
2023-09-05T15:41:41.660Z,9.20
2023-09-05T15:56:43.591Z,8.63
2023-09-05T16:11:45.523Z,7.97
2023-09-05T16:26:47.668Z,8.70
2023-09-05T16:41:50.852Z,9.50
2023-09-05T16:56:52.788Z,8.98
2023-09-05T17:11:54.732Z,9.20
2023-09-05T17:26:56.750Z,9.13
2023-09-05T17:41:59.678Z,10.70
2023-09-05T17:57:01.686Z,9.48
2023-09-05T18:12:03.809Z,9.95
2023-09-05T18:27:07.559Z,9.70
2023-09-05T18:42:12.342Z,9.88
2023-09-05T18:57:14.601Z,9.60
2023-09-05T19:12:19.314Z,10.05
2023-09-05T19:27:21.691Z,10.07
2023-09-05T19:42:23.770Z,9.85
2023-09-05T19:57:25.949Z,9.18
2023-09-05T20:12:27.958Z,8.88
2023-09-05T20:27:30.135Z,8.38
2023-09-05T20:42:33.190Z,9.30
2023-09-05T20:57:35.308Z,8.48
2023-09-05T21:12:37.274Z,8.70
2023-09-05T21:27:39.406Z,8.90
2023-09-05T21:42:42.858Z,8.27
2023-09-05T21:57:45.019Z,9.05
2023-09-05T22:12:47.152Z,9.07
2023-09-05T22:27:49.589Z,9.77
2023-09-05T22:42:52.324Z,9.35
2023-09-05T22:57:54.814Z,9.13
2023-09-05T23:12:56.939Z,9.32
2023-09-05T23:27:58.919Z,9.10
2023-09-05T23:43:01.010Z,9.00
2023-09-05T23:58:03.207Z,8.95
